Vincent, Alabama
Current Conditions -  °F | °C
As of 7:35 AM on Sunday 21 Dec 2014 (Local Time) from KSCD Reporting Station
Haze Haze  
Wind Chill: 45°   Ceiling: 800
Heat Index: 45°   Visibility: 4mi
Dew Point: 45°   Wind: 0mph
Humidity: 100%   Direction: NA
Pressure: 30.18"   Gusts: NA
Location:  33.38°N, 86.41°W
Report Text: KSCD 211335Z AUTO 00000KT 4SM BR OVC008 07/07 A3018 RMK AO2 T00730073
Loading
Personal Weather Stations






























Interactive Weather Map New forecast layout! Learn more

10-Day Weather Forecast

Advertisements
Track Severe Weather on mobile